Time;durP1;ratioP1;P1;durP2;ratioP2;P2;SDS_P1;SDS_P2;PMS_P1;PMS_P2;Temp;Humidity;BMP_temperature;BMP_pressure;BME280_temperature;BME280_humidity;BME280_pressure;Samples;Min_cycle;Max_cycle;Signal;HPM_P1;HPM_P2
2023/04/07 00:00:12;;;;;;;32.60;18.90;;;;;;;0.28;77.75;98804.12;105168;1255;107584;-75
2023/04/07 00:03:01;;;;;;;30.20;16.00;;;;;;;0.28;77.66;98802.38;105188;1254;97419;-71
2023/04/07 00:05:29;;;;;;;28.70;17.10;;;;;;;0.28;77.34;98797.14;105393;1251;97127;-71
2023/04/07 00:07:57;;;;;;;28.30;15.90;;;;;;;0.30;78.02;98801.27;105415;1257;109872;-71
2023/04/07 00:10:25;;;;;;;26.90;14.80;;;;;;;0.28;77.92;98803.59;105499;1251;102234;-72
2023/04/07 00:12:53;;;;;;;28.60;15.90;;;;;;;0.28;77.96;98809.68;105414;1267;107578;-73
2023/04/07 00:15:21;;;;;;;29.00;16.70;;;;;;;0.28;78.11;98804.47;105290;1254;96639;-70
2023/04/07 00:17:50;;;;;;;32.10;18.00;;;;;;;0.28;77.83;98806.40;105606;1254;98190;-71
2023/04/07 00:20:18;;;;;;;29.90;16.90;;;;;;;0.29;78.01;98806.20;105598;1251;110604;-72
2023/04/07 00:22:45;;;;;;;29.90;17.00;;;;;;;0.29;77.88;98805.47;105292;1257;101478;-72
2023/04/07 00:25:14;;;;;;;33.80;20.60;;;;;;;0.29;78.22;98807.58;105335;1267;108281;-73
2023/04/07 00:27:42;;;;;;;27.60;16.30;;;;;;;0.28;78.19;98802.36;105383;1257;96669;-71
2023/04/07 00:30:11;;;;;;;31.90;19.10;;;;;;;0.28;77.71;98802.71;105556;1251;97064;-75
2023/04/07 00:32:39;;;;;;;27.60;15.50;;;;;;;0.29;77.56;98803.37;105364;1257;109341;-71
2023/04/07 00:35:08;;;;;;;29.70;16.70;;;;;;;0.31;77.59;98803.33;105480;1257;100650;-70
2023/04/07 00:37:35;;;;;;;28.70;15.30;;;;;;;0.32;77.69;98800.85;105443;1257;107423;-70
2023/04/07 00:40:04;;;;;;;30.30;17.30;;;;;;;0.31;77.85;98791.29;105263;1254;96673;-72
2023/04/07 00:42:33;;;;;;;27.80;15.60;;;;;;;0.32;77.37;98790.75;105386;1254;97907;-71
2023/04/07 00:45:02;;;;;;;28.90;14.60;;;;;;;0.31;77.76;98783.63;105588;1255;107765;-71
2023/04/07 00:47:30;;;;;;;26.40;14.40;;;;;;;0.31;77.30;98768.96;105466;1256;101837;-71
2023/04/07 00:49:58;;;;;;;29.30;15.70;;;;;;;0.32;77.47;98766.33;105208;1265;107949;-71
2023/04/07 00:52:27;;;;;;;26.00;13.80;;;;;;;0.31;77.78;98766.70;105381;1254;96590;-70
2023/04/07 00:54:55;;;;;;;27.90;16.70;;;;;;;0.32;78.03;98768.07;105390;1254;97082;-71
2023/04/07 00:57:24;;;;;;;27.30;14.90;;;;;;;0.31;78.15;98774.55;105633;1250;109328;-70
2023/04/07 00:59:54;;;;;;;28.30;16.20;;;;;;;0.31;77.75;98774.91;105315;1266;101928;-73
2023/04/07 01:02:44;;;;;;;29.30;16.70;;;;;;;0.32;77.76;98769.98;105509;1255;107674;-72
2023/04/07 01:05:17;;;;;;;27.70;14.50;;;;;;;0.31;78.06;98768.98;105356;1256;96655;-71
2023/04/07 01:08:18;;;;;;;26.10;13.90;;;;;;;0.32;77.81;98769.46;105402;1257;97418;-71
2023/04/07 01:10:55;;;;;;;26.60;14.30;;;;;;;0.31;77.82;98777.85;105458;1257;109602;-71
2023/04/07 01:13:33;;;;;;;26.80;14.00;;;;;;;0.32;77.78;98768.23;105421;1255;102156;-71
2023/04/07 01:16:08;;;;;;;27.30;14.00;;;;;;;0.33;77.76;98755.63;105225;1274;107630;-75
2023/04/07 01:18:39;;;;;;;26.10;13.50;;;;;;;0.34;78.18;98751.08;105399;1255;96738;-71
2023/04/07 01:21:13;;;;;;;25.80;13.70;;;;;;;0.34;77.91;98761.19;105413;1257;97230;-70
2023/04/07 01:23:59;;;;;;;25.70;12.60;;;;;;;0.34;77.61;98772.51;105361;1256;108950;-69
2023/04/07 01:26:29;;;;;;;26.20;13.70;;;;;;;0.36;77.85;98772.44;105329;1273;102194;-74
2023/04/07 01:29:25;;;;;;;25.00;12.30;;;;;;;0.37;78.65;98776.80;105425;1257;107573;-71
2023/04/07 01:31:55;;;;;;;26.20;13.80;;;;;;;0.37;78.27;98782.16;105551;1257;97059;-71
2023/04/07 01:34:26;;;;;;;26.20;12.60;;;;;;;0.38;78.10;98774.31;105484;1251;97142;-71
2023/04/07 01:36:55;;;;;;;27.60;14.30;;;;;;;0.37;78.42;98760.54;105210;1256;111064;-71
2023/04/07 01:39:26;;;;;;;26.30;14.50;;;;;;;0.38;78.64;98760.70;105418;1265;100964;-72
2023/04/07 01:41:56;;;;;;;26.30;13.30;;;;;;;0.37;78.29;98749.57;105308;1255;107217;-70
2023/04/07 01:44:26;;;;;;;26.20;14.20;;;;;;;0.38;77.95;98745.52;105404;1251;96608;-72
2023/04/07 01:46:56;;;;;;;26.50;13.10;;;;;;;0.36;78.55;98750.11;105304;1256;97170;-71
2023/04/07 01:49:25;;;;;;;23.10;11.60;;;;;;;0.37;78.77;98764.05;105476;1257;109871;-70
2023/04/07 01:51:55;;;;;;;26.20;13.20;;;;;;;0.37;78.53;98743.63;105379;1257;100690;-75
2023/04/07 01:54:24;;;;;;;28.30;16.10;;;;;;;0.38;78.14;98733.14;105407;1266;107574;-70
2023/04/07 01:56:52;;;;;;;29.20;16.90;;;;;;;0.38;78.08;98751.08;105295;1257;96568;-74
2023/04/07 01:59:20;;;;;;;26.30;13.70;;;;;;;0.39;78.22;98763.27;105209;1257;97066;-71
2023/04/07 02:01:48;;;;;;;26.30;13.50;;;;;;;0.38;78.60;98761.21;105463;1254;107820;-79
2023/04/07 02:04:36;;;;;;;23.20;11.80;;;;;;;0.39;78.39;98757.16;105450;1273;102379;-72
2023/04/07 02:07:26;;;;;;;23.20;11.70;;;;;;;0.41;78.42;98756.93;105593;1256;107033;-71
2023/04/07 02:10:01;;;;;;;25.00;13.20;;;;;;;0.40;78.56;98758.70;105502;1254;97922;-72
2023/04/07 02:12:32;;;;;;;24.50;13.30;;;;;;;0.40;78.36;98762.20;105379;1253;97627;-78
2023/04/07 02:15:02;;;;;;;25.80;13.40;;;;;;;0.40;78.57;98762.02;105624;1255;109860;-72
2023/04/07 02:17:33;;;;;;;27.10;13.80;;;;;;;0.40;78.16;98759.05;105424;1257;102155;-71
2023/04/07 02:20:05;;;;;;;27.30;14.50;;;;;;;0.41;78.34;98760.05;105503;1255;107538;-71
2023/04/07 02:22:32;;;;;;;27.90;14.20;;;;;;;0.40;78.15;98759.73;105407;1251;97928;-71
2023/04/07 02:25:00;;;;;;;26.70;12.90;;;;;;;0.39;78.15;98756.45;105531;1257;97134;-71
2023/04/07 02:27:28;;;;;;;26.50;13.60;;;;;;;0.40;78.41;98754.88;105440;1255;109838;-71
2023/04/07 02:29:56;;;;;;;24.60;13.00;;;;;;;0.38;78.29;98755.11;105542;1257;100280;-75
2023/04/07 02:32:24;;;;;;;30.90;16.50;;;;;;;0.38;78.94;98749.69;105228;1252;107626;-75
2023/04/07 02:34:52;;;;;;;29.20;16.10;;;;;;;0.36;79.18;98746.10;105496;1256;97362;-70
2023/04/07 02:37:20;;;;;;;29.20;16.00;;;;;;;0.36;78.73;98747.86;105474;1257;98142;-72
2023/04/07 02:39:48;;;;;;;28.80;14.60;;;;;;;0.35;78.63;98741.95;105506;1251;109896;-71
2023/04/07 02:42:16;;;;;;;29.10;15.50;;;;;;;0.35;78.72;98744.92;105222;1264;100269;-72
2023/04/07 02:44:44;;;;;;;38.50;23.10;;;;;;;0.34;78.49;98744.61;105391;1264;107597;-74
2023/04/07 02:47:12;;;;;;;29.80;15.60;;;;;;;0.34;79.12;98743.93;105642;1257;96590;-71
2023/04/07 02:49:40;;;;;;;29.80;15.70;;;;;;;0.33;78.71;98740.30;105511;1255;96671;-71
2023/04/07 02:52:08;;;;;;;28.80;14.70;;;;;;;0.33;78.57;98738.89;105249;1257;109470;-71
2023/04/07 02:54:36;;;;;;;28.30;14.10;;;;;;;0.33;78.74;98735.93;105609;1257;101936;-70
2023/04/07 02:57:04;;;;;;;30.00;14.70;;;;;;;0.32;79.03;98731.60;105482;1257;107594;-74
2023/04/07 02:59:32;;;;;;;29.20;14.30;;;;;;;0.30;79.03;98728.34;105452;1255;96705;-77
2023/04/07 03:02:00;;;;;;;29.50;15.50;;;;;;;0.32;78.62;98730.23;105193;1257;97089;-73
2023/04/07 03:04:28;;;;;;;31.60;15.70;;;;;;;0.31;78.70;98729.55;105464;1255;109703;-71
2023/04/07 03:06:56;;;;;;;27.80;14.20;;;;;;;0.31;78.61;98727.65;105515;1255;101892;-71
2023/04/07 03:09:25;;;;;;;31.50;16.50;;;;;;;0.31;79.07;98735.30;105547;1257;106928;-76
2023/04/07 03:11:53;;;;;;;28.90;14.70;;;;;;;0.31;78.76;98734.08;105392;1256;97409;-71
2023/04/07 03:14:21;;;;;;;26.40;13.50;;;;;;;0.31;78.87;98736.00;105770;1256;97093;-71
2023/04/07 03:16:49;;;;;;;28.80;14.50;;;;;;;0.30;79.11;98743.70;105594;1257;109503;-71
2023/04/07 03:19:17;;;;;;;28.40;14.50;;;;;;;0.29;79.04;98742.33;105388;1252;101911;-72
2023/04/07 03:21:45;;;;;;;27.10;14.30;;;;;;;0.31;78.70;98741.93;105185;1264;107675;-71
2023/04/07 03:24:13;;;;;;;27.30;14.30;;;;;;;0.32;78.74;98735.80;105428;1256;96679;-71
2023/04/07 03:26:40;;;;;;;28.20;14.90;;;;;;;0.33;79.24;98741.00;105518;1255;96577;-71
2023/04/07 03:29:08;;;;;;;28.20;14.50;;;;;;;0.32;78.64;98744.34;105367;1257;109882;-71
2023/04/07 03:31:36;;;;;;;29.60;15.60;;;;;;;0.33;78.42;98744.84;105484;1256;102184;-73
2023/04/07 03:34:04;;;;;;;27.70;13.80;;;;;;;0.34;78.79;98745.33;105250;1266;107650;-71
2023/04/07 03:36:32;;;;;;;28.00;13.60;;;;;;;0.34;78.62;98746.52;105404;1257;97188;-70
2023/04/07 03:39:00;;;;;;;28.50;13.60;;;;;;;0.36;78.40;98751.69;105373;1255;97074;-71
2023/04/07 03:41:28;;;;;;;24.20;12.00;;;;;;;0.37;78.15;98758.80;105336;1257;109041;-71
2023/04/07 03:43:56;;;;;;;26.70;13.80;;;;;;;0.39;78.56;98755.25;105439;1255;102175;-71
2023/04/07 03:46:25;;;;;;;27.60;13.40;;;;;;;0.40;78.17;98756.23;105669;1256;107248;-72
2023/04/07 03:48:54;;;;;;;27.20;13.10;;;;;;;0.42;78.22;98763.84;105260;1251;96606;-71
2023/04/07 03:51:22;;;;;;;30.60;15.10;;;;;;;0.42;78.09;98763.14;105510;1254;97080;-71
2023/04/07 03:53:50;;;;;;;27.40;14.00;;;;;;;0.44;77.92;98762.91;105505;1255;109337;-70
2023/04/07 03:56:19;;;;;;;29.30;13.70;;;;;;;0.47;77.81;98769.98;105426;1260;102173;-72
2023/04/07 03:58:48;;;;;;;31.80;16.00;;;;;;;0.48;78.11;98767.84;105166;1267;107590;-70
2023/04/07 04:01:15;;;;;;;28.50;14.90;;;;;;;0.48;78.19;98765.73;105441;1254;97307;-72
2023/04/07 04:03:43;;;;;;;32.20;16.10;;;;;;;0.48;78.70;98762.79;105360;1256;97067;-71
2023/04/07 04:06:11;;;;;;;35.70;17.20;;;;;;;0.45;78.15;98759.38;105530;1250;108245;-70
2023/04/07 04:08:39;;;;;;;31.00;15.30;;;;;;;0.45;78.05;98761.12;105581;1255;102224;-72
2023/04/07 04:11:07;;;;;;;29.50;14.60;;;;;;;0.46;78.26;98766.15;105189;1257;108322;-70
2023/04/07 04:13:35;;;;;;;28.20;14.10;;;;;;;0.47;78.27;98764.57;105431;1267;96599;-70
2023/04/07 04:16:04;;;;;;;29.50;14.70;;;;;;;0.48;78.18;98763.63;105226;1254;96984;-71
2023/04/07 04:18:32;;;;;;;28.70;14.80;;;;;;;0.48;78.82;98760.15;105260;1257;109581;-71
2023/04/07 04:21:00;;;;;;;29.60;13.80;;;;;;;0.48;78.38;98758.23;105479;1256;101846;-71
2023/04/07 04:23:28;;;;;;;29.00;14.10;;;;;;;0.49;78.68;98762.73;105465;1256;106649;-72
2023/04/07 04:25:56;;;;;;;29.80;14.60;;;;;;;0.50;78.22;98764.44;105274;1251;96586;-71
2023/04/07 04:28:25;;;;;;;28.70;15.20;;;;;;;0.51;78.13;98765.28;105768;1257;97119;-73
2023/04/07 04:30:52;;;;;;;27.40;12.70;;;;;;;0.53;77.70;98769.91;105347;1257;109865;-71
2023/04/07 04:33:20;;;;;;;32.00;15.70;;;;;;;0.54;78.25;98774.05;105224;1255;102184;-71
2023/04/07 04:35:48;;;;;;;41.50;24.90;;;;;;;0.55;78.23;98777.88;105513;1257;107096;-77
2023/04/07 04:38:16;;;;;;;37.00;18.20;;;;;;;0.56;78.25;98783.08;105424;1265;96632;-72
2023/04/07 04:40:44;;;;;;;33.60;16.70;;;;;;;0.58;77.96;98783.00;105444;1257;98019;-71
2023/04/07 04:43:12;;;;;;;36.20;19.50;;;;;;;0.59;78.14;98786.80;105636;1256;109920;-71
2023/04/07 04:45:40;;;;;;;31.20;17.20;;;;;;;0.58;78.05;98789.61;105494;1254;103150;-70
2023/04/07 04:48:09;;;;;;;32.00;16.40;;;;;;;0.58;78.35;98789.64;105553;1256;107727;-71
2023/04/07 04:50:37;;;;;;;28.90;15.30;;;;;;;0.59;78.41;98787.66;105504;1263;97404;-71
2023/04/07 04:53:06;;;;;;;29.90;15.50;;;;;;;0.61;78.26;98782.04;105499;1257;97105;-74
2023/04/07 04:55:33;;;;;;;26.70;13.10;;;;;;;0.63;78.25;98778.61;105593;1257;109655;-74
2023/04/07 04:58:01;;;;;;;28.40;14.40;;;;;;;0.65;78.42;98773.48;105335;1256;102245;-73
2023/04/07 05:00:29;;;;;;;36.00;18.70;;;;;;;0.68;78.50;98771.83;105413;1255;106752;-72
2023/04/07 05:02:57;;;;;;;37.00;18.10;;;;;;;0.73;78.30;98770.59;105360;1256;97908;-74
2023/04/07 05:05:25;;;;;;;35.10;17.40;;;;;;;0.78;78.67;98773.02;105453;1251;97895;-73
2023/04/07 05:07:53;;;;;;;33.30;16.90;;;;;;;0.81;78.93;98773.79;108749;1251;109445;-74
2023/04/07 05:10:21;;;;;;;30.90;14.40;;;;;;;0.82;78.50;98772.15;108567;1251;237297;-71
2023/04/07 05:12:50;;;;;;;24.50;12.00;;;;;;;0.88;78.25;98781.91;107743;1255;107355;-73
2023/04/07 05:15:17;;;;;;;24.30;10.80;;;;;;;0.96;78.19;98782.48;106423;1254;96615;-73
2023/04/07 05:17:49;;;;;;;22.70;10.10;;;;;;;1.01;78.09;98782.99;105789;1254;99601;-73
2023/04/07 05:20:17;;;;;;;23.20;10.80;;;;;;;1.05;78.08;98782.48;106076;1254;109848;-72
2023/04/07 05:22:45;;;;;;;23.70;11.10;;;;;;;1.08;78.03;98787.61;105569;1255;102207;-73
2023/04/07 05:25:13;;;;;;;23.20;10.20;;;;;;;1.09;78.06;98792.82;105391;1256;106079;-72
2023/04/07 05:27:41;;;;;;;38.70;18.30;;;;;;;1.11;77.95;98791.48;105418;1254;96705;-71
2023/04/07 05:30:09;;;;;;;41.60;17.60;;;;;;;1.13;78.03;98789.33;105307;1251;97500;-73
2023/04/07 05:32:37;;;;;;;25.20;13.00;;;;;;;1.15;78.09;98786.80;105450;1264;109586;-72
2023/04/07 05:35:05;;;;;;;24.60;11.70;;;;;;;1.15;78.35;98785.41;105783;1254;104099;-71
2023/04/07 05:37:33;;;;;;;23.20;11.90;;;;;;;1.14;78.18;98784.23;108431;1251;107643;-72
2023/04/07 05:40:01;;;;;;;24.40;12.20;;;;;;;1.15;78.37;98783.50;105529;1265;96555;-72
2023/04/07 05:42:30;;;;;;;26.40;12.80;;;;;;;1.14;78.69;98784.76;105558;1252;97232;-73
2023/04/07 05:44:58;;;;;;;32.70;15.40;;;;;;;1.15;78.16;98786.83;105480;1252;109899;-73
2023/04/07 05:47:25;;;;;;;39.20;21.10;;;;;;;1.18;78.44;98787.24;105288;1257;102229;-75
2023/04/07 05:49:53;;;;;;;60.80;30.00;;;;;;;1.20;78.38;98791.70;105558;1257;107628;-73
2023/04/07 05:52:21;;;;;;;50.40;25.20;;;;;;;1.22;78.25;98799.83;105326;1257;97794;-74
2023/04/07 05:54:50;;;;;;;48.20;25.90;;;;;;;1.22;78.10;98804.90;108707;1251;94397;-72
2023/04/07 05:57:17;;;;;;;38.10;20.20;;;;;;;1.25;78.22;98809.32;105560;1256;108184;-73
2023/04/07 05:59:45;;;;;;;42.80;23.90;;;;;;;1.27;78.29;98809.96;105524;1251;102202;-75
2023/04/07 06:02:14;;;;;;;45.10;26.20;;;;;;;1.27;78.27;98805.73;105330;1255;107638;-76
2023/04/07 06:04:42;;;;;;;47.70;24.90;;;;;;;1.32;78.19;98801.55;105184;1263;96680;-73
2023/04/07 06:07:10;;;;;;;35.40;21.60;;;;;;;1.37;78.17;98799.77;105570;1256;97108;-74
2023/04/07 06:09:38;;;;;;;37.80;22.70;;;;;;;1.44;78.33;98793.75;105474;1261;110254;-74
2023/04/07 06:12:06;;;;;;;34.40;20.50;;;;;;;1.50;78.09;98796.63;107363;1256;102238;-73
2023/04/07 06:14:34;;;;;;;30.00;17.10;;;;;;;1.55;78.20;98802.02;105529;1257;109303;-73
2023/04/07 06:17:02;;;;;;;35.20;20.20;;;;;;;1.57;77.95;98802.48;107166;1256;96608;-74
2023/04/07 06:19:30;;;;;;;32.60;17.70;;;;;;;1.60;77.76;98801.31;105936;1251;96677;-74
2023/04/07 06:21:57;;;;;;;30.00;16.80;;;;;;;1.65;78.06;98798.64;108701;1251;109373;-74
2023/04/07 06:24:26;;;;;;;27.20;14.40;;;;;;;1.75;77.86;98792.33;108861;1250;102403;-72
2023/04/07 06:26:55;;;;;;;26.30;13.40;;;;;;;1.83;78.30;98791.81;106632;1257;108250;-73
2023/04/07 06:29:23;;;;;;;27.20;14.70;;;;;;;1.87;78.04;98794.11;105741;1257;96656;-73
2023/04/07 06:31:51;;;;;;;27.80;14.90;;;;;;;1.88;78.00;98790.59;105877;1254;97086;-74
2023/04/07 06:34:19;;;;;;;28.00;15.30;;;;;;;1.87;77.82;98790.59;108322;1251;109677;-72
2023/04/07 06:36:47;;;;;;;32.70;16.50;;;;;;;1.88;77.96;98791.27;105742;1257;102167;-74
2023/04/07 06:39:15;;;;;;;29.20;15.40;;;;;;;1.90;77.84;98797.10;105478;1256;107366;-73
2023/04/07 06:41:43;;;;;;;30.50;15.30;;;;;;;1.95;77.90;98801.31;105621;1257;96618;-74
2023/04/07 06:44:11;;;;;;;29.20;15.10;;;;;;;1.98;77.87;98804.67;105612;1256;97112;-73
2023/04/07 06:46:40;;;;;;;32.20;15.80;;;;;;;1.98;77.80;98806.45;105654;1254;108612;-72
2023/04/07 06:49:08;;;;;;;36.00;19.70;;;;;;;1.93;78.12;98807.85;105725;1251;102704;-74
2023/04/07 06:51:36;;;;;;;54.10;33.50;;;;;;;1.87;77.73;98809.31;105357;1264;107175;-74
2023/04/07 06:54:06;;;;;;;42.90;24.30;;;;;;;1.85;77.74;98803.45;105800;1257;96596;-73
2023/04/07 06:56:35;;;;;;;33.00;19.30;;;;;;;1.86;77.86;98810.55;106432;1257;97074;-70
2023/04/07 06:59:02;;;;;;;36.20;21.40;;;;;;;1.82;77.78;98815.99;105439;1256;108601;-72
2023/04/07 07:01:30;;;;;;;30.20;17.30;;;;;;;1.74;77.94;98820.16;105420;1256;102225;-71
2023/04/07 07:04:00;;;;;;;30.30;17.70;;;;;;;1.67;77.66;98828.47;105623;1254;106660;-75
2023/04/07 07:06:28;;;;;;;33.70;20.10;;;;;;;1.63;78.07;98831.96;105427;1257;96590;-74
2023/04/07 07:08:56;;;;;;;37.50;20.40;;;;;;;1.62;78.14;98826.76;105564;1263;98468;-75
2023/04/07 07:11:25;;;;;;;32.60;17.80;;;;;;;1.65;78.10;98826.81;105692;1254;109847;-74
2023/04/07 07:13:52;;;;;;;30.60;17.20;;;;;;;1.70;78.08;98826.63;105530;1256;102341;-75
2023/04/07 07:16:22;;;;;;;31.00;17.20;;;;;;;1.73;78.13;98830.01;105390;1257;108285;-74
2023/04/07 07:18:50;;;;;;;30.20;16.10;;;;;;;1.77;78.08;98831.06;105432;1257;98018;-75
2023/04/07 07:21:18;;;;;;;32.30;17.70;;;;;;;1.80;77.92;98835.13;105691;1256;97909;-74
2023/04/07 07:23:46;;;;;;;33.80;18.80;;;;;;;1.88;78.11;98827.82;105513;1251;109868;-75
2023/04/07 07:26:15;;;;;;;28.80;16.10;;;;;;;1.96;78.19;98819.44;105306;1257;102243;-73
2023/04/07 07:28:43;;;;;;;41.50;24.20;;;;;;;2.08;78.27;98815.61;105501;1264;105598;-74
2023/04/07 07:31:12;;;;;;;31.40;17.60;;;;;;;2.18;78.15;98813.95;105561;1263;96585;-75
2023/04/07 07:33:42;;;;;;;41.90;23.80;;;;;;;2.27;78.06;98801.00;105567;1252;96580;-74
2023/04/07 07:36:11;;;;;;;34.40;19.70;;;;;;;2.38;77.98;98795.47;105397;1251;109527;-75
2023/04/07 07:38:39;;;;;;;34.90;20.90;;;;;;;2.52;78.10;98798.70;105528;1255;102225;-74
2023/04/07 07:41:08;;;;;;;39.20;22.70;;;;;;;2.62;77.96;98803.35;105542;1256;107212;-75
2023/04/07 07:43:36;;;;;;;34.60;20.10;;;;;;;2.73;77.95;98806.86;105512;1264;96590;-74
2023/04/07 07:46:04;;;;;;;35.50;19.60;;;;;;;2.82;77.82;98809.27;108793;1254;94502;-75
2023/04/07 07:48:32;;;;;;;31.30;18.20;;;;;;;2.86;77.88;98808.05;107924;1255;108995;-73
2023/04/07 07:51:00;;;;;;;35.80;20.50;;;;;;;2.91;77.81;98816.95;105196;1257;102250;-75
2023/04/07 07:53:28;;;;;;;31.30;17.60;;;;;;;2.91;77.61;98819.05;105765;1252;107642;-75
2023/04/07 07:55:56;;;;;;;30.30;16.10;;;;;;;2.91;77.74;98825.71;105630;1256;96584;-74
2023/04/07 07:58:24;;;;;;;28.80;13.90;;;;;;;2.89;77.61;98828.06;105498;1256;98244;-75
2023/04/07 08:00:52;;;;;;;35.40;19.10;;;;;;;2.77;77.57;98834.89;105521;1264;109920;-74
2023/04/07 08:03:21;;;;;;;37.70;19.10;;;;;;;2.72;77.76;98835.64;108799;1251;102179;-73
2023/04/07 08:05:49;;;;;;;41.30;21.30;;;;;;;2.72;77.70;98839.69;108849;1251;106224;-73
2023/04/07 08:08:17;;;;;;;54.50;28.20;;;;;;;2.70;77.74;98837.15;108726;1252;94935;-73
2023/04/07 08:10:45;;;;;;;56.40;27.80;;;;;;;2.71;77.90;98834.98;105522;1251;97807;-75
2023/04/07 08:13:13;;;;;;;37.30;21.00;;;;;;;2.73;77.72;98842.96;105506;1256;109404;-75
2023/04/07 08:15:41;;;;;;;34.00;18.10;;;;;;;2.73;77.69;98848.23;105499;1264;103148;-74
2023/04/07 08:18:09;;;;;;;34.70;19.50;;;;;;;2.69;77.74;98854.52;105150;1257;107597;-75
2023/04/07 08:20:37;;;;;;;32.30;18.10;;;;;;;2.61;77.58;98855.02;105452;1251;97787;-74
2023/04/07 08:23:05;;;;;;;36.30;19.60;;;;;;;2.60;77.81;98858.25;105551;1254;98226;-74
2023/04/07 08:25:34;;;;;;;32.40;18.30;;;;;;;2.61;77.61;98855.94;105480;1257;109653;-74
2023/04/07 08:28:02;;;;;;;30.40;16.60;;;;;;;2.60;77.81;98856.46;105396;1266;102970;-74
2023/04/07 08:30:30;;;;;;;32.50;17.50;;;;;;;2.62;77.78;98860.77;105490;1257;106924;-77
2023/04/07 08:33:07;;;;;;;32.20;16.50;;;;;;;2.59;77.72;98864.59;105234;1255;96677;-74
2023/04/07 08:35:35;;;;;;;32.90;18.30;;;;;;;2.57;77.64;98866.40;105423;1254;97023;-75
2023/04/07 08:38:04;;;;;;;30.20;17.30;;;;;;;2.58;77.66;98866.20;105243;1273;109899;-76
2023/04/07 08:40:33;;;;;;;27.60;15.20;;;;;;;2.60;77.73;98872.75;105428;1256;101835;-74
2023/04/07 08:43:07;;;;;;;28.40;16.50;;;;;;;2.57;77.71;98876.90;105336;1257;107566;-75
2023/04/07 08:45:40;;;;;;;30.10;18.00;;;;;;;2.50;77.78;98871.23;105409;1257;96606;-74
2023/04/07 08:48:32;;;;;;;31.60;20.10;;;;;;;2.51;77.94;98868.23;105349;1254;96984;-74
2023/04/07 08:51:07;;;;;;;32.60;19.50;;;;;;;2.59;77.90;98866.66;105284;1257;111440;-73
2023/04/07 08:53:42;;;;;;;46.40;24.10;;;;;;;2.66;77.97;98866.39;105068;1269;102210;-74
2023/04/07 08:56:14;;;;;;;43.80;23.10;;;;;;;2.72;77.90;98867.17;105469;1261;107510;-75
2023/04/07 08:58:44;;;;;;;37.70;20.50;;;;;;;2.79;77.76;98867.05;105428;1254;97387;-73
2023/04/07 09:01:13;;;;;;;27.90;15.40;;;;;;;2.91;77.87;98867.91;105466;1254;97086;-75
2023/04/07 09:03:43;;;;;;;31.90;17.50;;;;;;;2.94;77.73;98868.45;105301;1254;108923;-76
2023/04/07 09:06:11;;;;;;;27.10;14.20;;;;;;;2.92;77.84;98871.88;105409;1264;101422;-74
2023/04/07 09:08:39;;;;;;;30.40;17.80;;;;;;;2.92;77.77;98873.12;105392;1251;108311;-75
2023/04/07 09:11:07;;;;;;;28.00;15.80;;;;;;;2.94;77.72;98871.82;105568;1252;96711;-74
2023/04/07 09:13:35;;;;;;;28.80;16.60;;;;;;;2.96;77.75;98871.70;105276;1251;97000;-74
2023/04/07 09:16:04;;;;;;;30.70;17.60;;;;;;;3.03;77.78;98872.64;105625;1254;109913;-74
2023/04/07 09:18:32;;;;;;;30.70;18.00;;;;;;;3.08;77.60;98872.61;105476;1257;102220;-74
2023/04/07 09:21:03;;;;;;;32.10;18.90;;;;;;;3.06;77.57;98870.92;105510;1255;107606;-74
2023/04/07 09:23:33;;;;;;;37.40;22.00;;;;;;;3.10;77.72;98874.23;105302;1254;96680;-74
2023/04/07 09:26:16;;;;;;;34.80;18.70;;;;;;;3.19;77.91;98877.34;105170;1254;97082;-74
2023/04/07 09:28:46;;;;;;;27.90;14.80;;;;;;;3.26;77.92;98874.77;105485;1251;109343;-74
2023/04/07 09:31:15;;;;;;;26.20;14.90;;;;;;;3.28;77.76;98873.08;105583;1265;100492;-75
2023/04/07 09:33:43;;;;;;;30.70;16.60;;;;;;;3.22;77.52;98877.39;105445;1265;107604;-76
2023/04/07 09:36:11;;;;;;;31.50;16.90;;;;;;;3.22;77.67;98880.73;105445;1251;97257;-74
2023/04/07 09:38:40;;;;;;;36.20;16.90;;;;;;;3.27;77.68;98877.86;105501;1254;96568;-74
2023/04/07 09:41:10;;;;;;;31.20;17.10;;;;;;;3.27;77.59;98877.16;105648;1252;109948;-74
2023/04/07 09:43:43;;;;;;;32.20;16.90;;;;;;;3.34;77.71;98875.64;105432;1261;102190;-76
2023/04/07 09:46:16;;;;;;;30.30;15.40;;;;;;;3.40;77.63;98872.39;105491;1264;107539;-75
2023/04/07 09:48:45;;;;;;;31.00;16.70;;;;;;;3.44;77.66;98874.63;105446;1257;96677;-74
2023/04/07 09:51:16;;;;;;;28.20;15.00;;;;;;;3.48;77.69;98880.94;105502;1254;97070;-74
2023/04/07 09:53:49;;;;;;;29.80;17.40;;;;;;;3.47;77.47;98882.55;105618;1257;111497;-73
2023/04/07 09:56:21;;;;;;;;;;;;;;;3.44;77.53;98883.77;105484;1266;101854;-75
2023/04/07 09:58:52;;;;;;;28.40;14.60;;;;;;;3.40;77.78;98882.86;105440;1267;107929;-74
2023/04/07 10:01:21;;;;;;;28.50;14.90;;;;;;;3.39;77.57;98887.67;105360;1254;97386;-75
2023/04/07 10:03:49;;;;;;;32.40;18.10;;;;;;;3.35;77.65;98890.66;105400;1251;97504;-77
2023/04/07 10:06:19;;;;;;;38.10;19.10;;;;;;;3.42;77.99;98893.68;105710;1254;109844;-75
2023/04/07 10:08:47;;;;;;;40.10;20.20;;;;;;;3.43;77.72;98886.79;105593;1257;102100;-74
2023/04/07 10:11:16;;;;;;;39.20;21.70;;;;;;;3.44;77.57;98885.51;105451;1257;107319;-74
2023/04/07 10:13:45;;;;;;;41.30;22.20;;;;;;;3.40;77.42;98886.21;105395;1251;96683;-74
2023/04/07 10:16:14;;;;;;;53.90;28.60;;;;;;;3.39;77.54;98885.40;105460;1254;97153;-74
2023/04/07 10:18:43;;;;;;;45.80;27.50;;;;;;;3.34;77.50;98890.52;105943;1254;109039;-74
2023/04/07 10:21:14;;;;;;;43.80;27.20;;;;;;;3.29;77.44;98895.31;105445;1252;101853;-74
2023/04/07 10:24:14;;;;;;;31.90;19.00;;;;;;;3.25;77.55;98898.63;105433;1256;106815;-74
2023/04/07 10:26:43;;;;;;;34.70;22.00;;;;;;;3.20;77.46;98898.52;105409;1254;96619;-73
2023/04/07 10:29:14;;;;;;;35.60;21.70;;;;;;;3.19;77.38;98893.64;105787;1256;97068;-74
2023/04/07 10:31:42;;;;;;;33.00;18.80;;;;;;;3.19;77.51;98892.27;105644;1251;110323;-74
2023/04/07 10:34:11;;;;;;;38.40;21.90;;;;;;;3.27;77.60;98893.98;106415;1254;101487;-74
2023/04/07 10:37:09;;;;;;;35.70;19.50;;;;;;;3.28;77.43;98896.56;105619;1254;107353;-74
2023/04/07 10:39:38;;;;;;;38.00;19.70;;;;;;;3.27;77.54;98904.16;105718;1251;96574;-75
2023/04/07 10:42:37;;;;;;;41.10;23.60;;;;;;;3.25;77.46;98907.07;105643;1254;97172;-75
2023/04/07 10:45:08;;;;;;;35.60;21.00;;;;;;;3.24;77.62;98915.67;105529;1251;109599;-75
2023/04/07 10:48:02;;;;;;;36.10;19.60;;;;;;;3.24;77.48;98922.35;105544;1266;101746;-75
2023/04/07 10:50:30;;;;;;;;;;;;;;;3.20;77.42;98921.47;105480;1255;106067;-74
2023/04/07 10:53:11;;;;;;;48.30;27.40;;;;;;;3.10;77.45;98927.52;105580;1254;97229;-74
2023/04/07 10:55:44;;;;;;;53.60;29.50;;;;;;;3.08;77.45;98930.77;105645;1254;97803;-74
2023/04/07 10:58:13;;;;;;;35.70;19.50;;;;;;;3.07;77.49;98937.79;105292;1254;109841;-75
2023/04/07 11:00:42;;;;;;;50.30;28.60;;;;;;;3.07;77.49;98939.04;105637;1250;101930;-74
2023/04/07 11:03:14;;;;;;;51.80;29.70;;;;;;;3.08;77.45;98940.91;105353;1257;107638;-74
2023/04/07 11:05:42;;;;;;;53.20;30.90;;;;;;;3.14;77.64;98937.67;108848;1250;94509;-75
2023/04/07 11:08:10;;;;;;;40.50;22.30;;;;;;;3.21;77.72;98943.89;105712;1250;97108;-74
2023/04/07 11:10:38;;;;;;;41.60;23.70;;;;;;;3.28;77.65;98944.58;105581;1254;109391;-74
2023/04/07 11:13:07;;;;;;;37.30;20.90;;;;;;;3.38;77.80;98946.27;105686;1251;102219;-74
2023/04/07 11:15:36;;;;;;;36.20;20.20;;;;;;;3.48;77.71;98944.05;105519;1267;107197;-74
2023/04/07 11:18:22;;;;;;;36.50;20.70;;;;;;;3.59;77.70;98945.30;105470;1254;96520;-74
2023/04/07 11:21:12;;;;;;;39.00;22.40;;;;;;;3.65;77.54;98946.99;105360;1257;98200;-75
2023/04/07 11:23:44;;;;;;;35.60;21.00;;;;;;;3.70;77.63;98942.36;105335;1255;109864;-74